createdAt,value
2023-04-09T05:31:55.947Z,102356.00
2023-04-09T05:34:22.740Z,102355.00
2023-04-09T05:36:49.556Z,102362.00
2023-04-09T05:39:16.370Z,102356.00
2023-04-09T05:41:44.812Z,102369.00
2023-04-09T05:44:12.450Z,102363.00
2023-04-09T05:46:39.331Z,102366.00
2023-04-09T05:49:06.391Z,102364.00
2023-04-09T05:51:33.214Z,102363.00
2023-04-09T05:54:00.512Z,102369.00
2023-04-09T05:56:28.148Z,102372.00
2023-04-09T05:58:55.475Z,102376.00
2023-04-09T06:59:16.929Z,102399.00
2023-04-09T07:01:51.432Z,102396.00
2023-04-09T07:04:20.073Z,102393.00
2023-04-09T07:06:47.058Z,102405.00
2023-04-09T07:09:14.173Z,102410.00
2023-04-09T07:11:41.153Z,102416.00
2023-04-09T07:14:08.162Z,102421.00
2023-04-09T07:16:35.124Z,102416.00
2023-04-09T07:19:02.204Z,102416.00
2023-04-09T07:21:28.953Z,102421.00
2023-04-09T07:23:56.409Z,102431.00
2023-04-09T07:26:23.324Z,102433.00
2023-04-09T07:28:50.876Z,102422.00
2023-04-09T07:31:17.969Z,102411.00
2023-04-09T07:33:45.098Z,102422.00
2023-04-09T07:36:12.431Z,102433.00
2023-04-09T07:38:39.466Z,102430.00
2023-04-09T07:41:06.410Z,102448.00
2023-04-09T07:43:33.489Z,102453.00
2023-04-09T07:46:00.681Z,102440.00
2023-04-09T07:48:28.326Z,102453.00
2023-04-09T07:50:55.550Z,102460.00
2023-04-09T07:53:22.705Z,102451.00
2023-04-09T07:55:51.742Z,102456.00
2023-04-09T07:58:18.690Z,102461.00
2023-04-09T08:00:45.897Z,102467.00
2023-04-09T08:03:14.137Z,102465.00
2023-04-09T08:05:41.315Z,102444.00
2023-04-09T08:08:08.373Z,102457.00
2023-04-09T08:10:35.517Z,102466.00
2023-04-09T08:13:02.448Z,102465.00
2023-04-09T08:15:29.798Z,102474.00
2023-04-09T08:17:57.038Z,102489.00
2023-04-09T08:20:24.230Z,102478.00
2023-04-09T08:22:51.584Z,102475.00
2023-04-09T08:25:18.738Z,102477.00
2023-04-09T08:27:45.707Z,102459.00
2023-04-09T08:30:13.113Z,102465.00
2023-04-09T08:32:40.253Z,102463.00
2023-04-09T08:35:07.742Z,102482.00
2023-04-09T08:37:34.646Z,102472.00
2023-04-09T08:40:01.630Z,102481.00
2023-04-09T08:42:29.278Z,102490.00
2023-04-09T08:44:56.191Z,102486.00
2023-04-09T08:47:23.880Z,102471.00
2023-04-09T08:49:50.973Z,102467.00
2023-04-09T08:52:21.911Z,102465.00
2023-04-09T08:54:50.846Z,102448.00
2023-04-09T08:57:17.736Z,102452.00
2023-04-09T08:59:44.602Z,102451.00
2023-04-09T09:02:12.248Z,102471.00
2023-04-09T09:04:49.665Z,102462.00
2023-04-09T09:07:17.227Z,102458.00
2023-04-09T09:09:57.137Z,102482.00
2023-04-09T09:12:41.498Z,102483.00
2023-04-09T09:15:28.786Z,102477.00
2023-04-09T09:17:57.479Z,102477.00
2023-04-09T09:20:25.127Z,102469.00
2023-04-09T09:22:55.248Z,102473.00
2023-04-09T09:25:26.783Z,102467.00
2023-04-09T09:27:54.651Z,102446.00
2023-04-09T09:30:25.718Z,102451.00
2023-04-09T09:32:54.405Z,102463.00
2023-04-09T09:35:21.861Z,102458.00
2023-04-09T09:38:00.511Z,102472.00
2023-04-09T09:40:28.819Z,102461.00
2023-04-09T09:42:59.662Z,102453.00
2023-04-09T09:45:27.864Z,102435.00
2023-04-09T09:47:54.988Z,102477.00
2023-04-09T09:50:25.719Z,102471.00
2023-04-09T09:53:01.016Z,102469.00
2023-04-09T09:55:33.107Z,102458.00
2023-04-09T09:58:04.308Z,102459.00
2023-04-09T10:00:33.021Z,102458.00
2023-04-09T10:03:08.090Z,102442.00
2023-04-09T10:05:36.673Z,102455.00
2023-04-09T10:08:04.618Z,102434.00
2023-04-09T10:10:31.681Z,102443.00
2023-04-09T10:12:58.790Z,102451.00
2023-04-09T10:15:28.538Z,102463.00
2023-04-09T10:17:56.150Z,102455.00
2023-04-09T10:20:39.894Z,102445.00
2023-04-09T10:23:13.792Z,102462.00
2023-04-09T10:25:41.834Z,102450.00
2023-04-09T10:28:17.597Z,102439.00
2023-04-09T10:30:44.824Z,102457.00
2023-04-09T10:33:13.997Z,102461.00
2023-04-09T10:35:41.109Z,102442.00
2023-04-09T10:38:31.854Z,102435.00
2023-04-09T10:40:58.759Z,102430.00
2023-04-09T10:43:25.551Z,102434.00
2023-04-09T10:45:54.181Z,102446.00
2023-04-09T10:48:22.018Z,102437.00
2023-04-09T10:50:51.968Z,102453.00
2023-04-09T10:53:24.017Z,102434.00
2023-04-09T10:55:53.782Z,102412.00
2023-04-09T10:58:20.637Z,102399.00
2023-04-09T11:00:48.906Z,102420.00
2023-04-09T11:03:23.183Z,102420.00
2023-04-09T11:05:57.958Z,102439.00
2023-04-09T11:08:28.814Z,102421.00
2023-04-09T11:14:01.637Z,102427.00
2023-04-09T11:16:34.440Z,102395.00
2023-04-09T11:19:01.558Z,102413.00
2023-04-09T11:21:31.852Z,102400.00
2023-04-09T11:23:58.706Z,102392.00
2023-04-09T11:26:36.891Z,102374.00
2023-04-09T11:29:10.157Z,102383.00
2023-04-09T11:31:37.148Z,102361.00
2023-04-09T11:34:04.119Z,102398.00
2023-04-09T11:36:32.050Z,102400.00
2023-04-09T11:38:59.280Z,102388.00
2023-04-09T11:41:39.017Z,102413.00
2023-04-09T11:44:06.148Z,102423.00
2023-04-09T11:46:33.435Z,102416.00
2023-04-09T11:49:00.568Z,102411.00
2023-04-09T11:51:28.068Z,102409.00
2023-04-09T11:53:54.925Z,102435.00
2023-04-09T11:56:21.756Z,102408.00
2023-04-09T11:58:49.013Z,102397.00
2023-04-09T12:01:16.324Z,102409.00
2023-04-09T12:03:43.362Z,102423.00
2023-04-09T12:06:10.944Z,102407.00
2023-04-09T12:08:37.824Z,102415.00
2023-04-09T12:11:12.921Z,102386.00
2023-04-09T12:13:45.837Z,102382.00
2023-04-09T12:16:13.618Z,102392.00
2023-04-09T12:18:41.107Z,102396.00
2023-04-09T12:21:08.004Z,102404.00
2023-04-09T12:23:35.123Z,102393.00
2023-04-09T12:26:02.403Z,102390.00
2023-04-09T12:28:29.397Z,102392.00
2023-04-09T12:30:56.817Z,102384.00
2023-04-09T12:33:23.674Z,102392.00
2023-04-09T12:35:50.642Z,102369.00
2023-04-09T12:38:17.516Z,102390.00
2023-04-09T12:40:44.943Z,102382.00
2023-04-09T12:43:11.762Z,102362.00
2023-04-09T12:45:39.412Z,102373.00
2023-04-09T12:48:06.461Z,102371.00
2023-04-09T12:50:33.377Z,102368.00
2023-04-09T12:53:00.336Z,102365.00
2023-04-09T12:55:27.908Z,102377.00
2023-04-09T12:57:54.735Z,102398.00
2023-04-09T13:00:21.582Z,102367.00
2023-04-09T13:02:48.580Z,102374.00
2023-04-09T13:05:15.467Z,102370.00
2023-04-09T13:07:43.493Z,102366.00
2023-04-09T13:10:10.795Z,102382.00
2023-04-09T13:12:37.750Z,102351.00
2023-04-09T13:15:05.153Z,102364.00
2023-04-09T13:17:32.054Z,102370.00
2023-04-09T13:19:58.903Z,102363.00
2023-04-09T13:22:26.017Z,102362.00
2023-04-09T13:24:52.887Z,102359.00
2023-04-09T13:27:19.787Z,102358.00
2023-04-09T13:29:46.647Z,102373.00
2023-04-09T13:32:13.535Z,102355.00
2023-04-09T13:34:40.752Z,102364.00
2023-04-09T13:37:07.819Z,102365.00
2023-04-09T13:39:34.686Z,102365.00
2023-04-09T13:42:07.400Z,102383.00
2023-04-09T13:44:42.418Z,102377.00
2023-04-09T13:47:11.233Z,102367.00
2023-04-09T13:49:38.520Z,102366.00
2023-04-09T13:52:06.202Z,102361.00
2023-04-09T13:54:33.737Z,102365.00
2023-04-09T13:57:00.705Z,102337.00
2023-04-09T13:59:27.548Z,102357.00
2023-04-09T14:01:54.501Z,102352.00
2023-04-09T14:04:21.891Z,102328.00
2023-04-09T14:06:48.908Z,102350.00
2023-04-09T14:09:18.961Z,102345.00
2023-04-09T14:11:52.198Z,102354.00
2023-04-09T14:14:27.442Z,102352.00
2023-04-09T14:16:55.390Z,102355.00
2023-04-09T14:19:23.047Z,102352.00
2023-04-09T14:21:49.919Z,102333.00
2023-04-09T14:24:16.755Z,102338.00
2023-04-09T14:26:43.669Z,102334.00
2023-04-09T14:29:11.118Z,102350.00
2023-04-09T14:31:37.989Z,102351.00
2023-04-09T14:34:06.172Z,102347.00
2023-04-09T14:36:36.323Z,102338.00
2023-04-09T14:39:03.167Z,102328.00
2023-04-09T14:41:30.298Z,102322.00
2023-04-09T14:43:57.170Z,102343.00
2023-04-09T14:46:24.427Z,102323.00
2023-04-09T14:48:51.433Z,102329.00
2023-04-09T14:51:18.622Z,102337.00
2023-04-09T14:53:54.755Z,102325.00
2023-04-09T14:56:21.826Z,102326.00
2023-04-09T14:58:48.654Z,102322.00
2023-04-09T15:01:15.648Z,102316.00
2023-04-09T15:03:45.982Z,102309.00
2023-04-09T15:06:12.927Z,102301.00
2023-04-09T15:08:39.728Z,102295.00
2023-04-09T15:11:06.582Z,102300.00
2023-04-09T15:13:33.466Z,102288.00
2023-04-09T15:16:00.639Z,102284.00
2023-04-09T15:18:29.013Z,102280.00
2023-04-09T15:20:55.953Z,102264.00
2023-04-09T15:23:22.848Z,102259.00
2023-04-09T15:25:49.664Z,102249.00
2023-04-09T15:28:16.702Z,102250.00
2023-04-09T15:30:43.498Z,102240.00
2023-04-09T15:33:10.483Z,102235.00
2023-04-09T15:35:37.769Z,102230.00
2023-04-09T15:38:04.665Z,102242.00
2023-04-09T15:40:31.946Z,102229.00
2023-04-09T15:42:58.801Z,102221.00
2023-04-09T15:45:26.513Z,102207.00
2023-04-09T15:47:53.434Z,102218.00
2023-04-09T15:50:20.533Z,102221.00
2023-04-09T15:52:47.500Z,102215.00
2023-04-09T15:55:14.543Z,102221.00
2023-04-09T15:57:41.336Z,102212.00
2023-04-09T16:00:10.231Z,102225.00
2023-04-09T16:02:38.806Z,102212.00
2023-04-09T16:05:06.125Z,102217.00
2023-04-09T16:07:33.293Z,102220.00
2023-04-09T16:10:04.807Z,102209.00
2023-04-09T16:12:34.424Z,102204.00
2023-04-09T16:15:01.493Z,102195.00
2023-04-09T16:17:28.547Z,102201.00
2023-04-09T16:19:56.316Z,102199.00
2023-04-09T16:22:23.322Z,102188.00
2023-04-09T16:24:50.294Z,102192.00
2023-04-09T16:27:17.113Z,102188.00
2023-04-09T16:29:44.051Z,102190.00
2023-04-09T16:32:10.982Z,102206.00
2023-04-09T16:34:37.952Z,102190.00
2023-04-09T16:37:04.828Z,102196.00
2023-04-09T16:39:31.700Z,102184.00
2023-04-09T16:41:58.554Z,102180.00
2023-04-09T16:44:25.982Z,102164.00
2023-04-09T16:46:52.880Z,102170.00
2023-04-09T16:49:19.736Z,102170.00
2023-04-09T16:51:46.624Z,102165.00
2023-04-09T16:54:13.990Z,102159.00
2023-04-09T16:56:40.907Z,102163.00
2023-04-09T16:59:07.767Z,102156.00
2023-04-09T17:01:37.832Z,102150.00
2023-04-09T17:04:07.969Z,102167.00
2023-04-09T17:06:35.083Z,102167.00
2023-04-09T17:09:03.640Z,102189.00
2023-04-09T17:11:31.650Z,102178.00
2023-04-09T17:13:58.470Z,102177.00
2023-04-09T17:16:25.615Z,102184.00
2023-04-09T17:18:53.084Z,102177.00
2023-04-09T17:21:20.316Z,102185.00
2023-04-09T17:23:47.140Z,102181.00
2023-04-09T17:26:14.013Z,102169.00
2023-04-09T17:28:42.216Z,102163.00
2023-04-09T17:31:15.949Z,102159.00
2023-04-09T17:33:46.956Z,102171.00
2023-04-09T17:36:14.681Z,102162.00
2023-04-09T17:38:42.405Z,102156.00
2023-04-09T17:41:09.697Z,102162.00
2023-04-09T17:43:37.021Z,102160.00
2023-04-09T17:46:04.816Z,102157.00
2023-04-09T17:48:32.153Z,102159.00
2023-04-09T17:50:59.153Z,102153.00
2023-04-09T17:53:26.466Z,102145.00
2023-04-09T17:55:53.294Z,102158.00
2023-04-09T17:58:20.541Z,102146.00
2023-04-09T18:00:47.503Z,102146.00
2023-04-09T18:03:14.645Z,102141.00
2023-04-09T18:05:41.992Z,102137.00
2023-04-09T18:08:09.087Z,102147.00
2023-04-09T18:10:36.163Z,102150.00
2023-04-09T18:13:03.709Z,102143.00
2023-04-09T18:15:32.264Z,102143.00
2023-04-09T18:17:59.569Z,102149.00
2023-04-09T18:20:26.621Z,102135.00
2023-04-09T18:22:53.462Z,102150.00
2023-04-09T18:25:22.218Z,102134.00
2023-04-09T18:27:49.015Z,102131.00
2023-04-09T18:30:15.907Z,102130.00
2023-04-09T18:32:43.502Z,102134.00
2023-04-09T18:35:10.681Z,102144.00
2023-04-09T18:37:38.349Z,102137.00
2023-04-09T18:40:08.003Z,102138.00
2023-04-09T21:25:52.838Z,102140.00
2023-04-09T21:28:19.815Z,102132.00
2023-04-09T21:30:47.101Z,102148.00
2023-04-09T21:33:13.962Z,102148.00
2023-04-09T21:35:40.932Z,102132.00
2023-04-09T21:38:07.753Z,102136.00
2023-04-09T21:40:34.582Z,102137.00
2023-04-09T21:43:01.666Z,102132.00
2023-04-09T21:45:28.822Z,102143.00
2023-04-09T21:47:55.791Z,102144.00
2023-04-09T21:50:23.079Z,102139.00
2023-04-09T21:52:49.900Z,102147.00
2023-04-09T21:55:16.717Z,102145.00
2023-04-09T21:57:43.631Z,102128.00
2023-04-09T22:00:11.674Z,102129.00
2023-04-09T22:02:39.228Z,102139.00
2023-04-09T22:05:06.559Z,102146.00
2023-04-09T22:07:33.536Z,102132.00
2023-04-09T22:10:03.553Z,102138.00
2023-04-09T22:12:30.343Z,102132.00
2023-04-09T22:14:57.169Z,102138.00
2023-04-09T22:17:24.019Z,102135.00
2023-04-09T22:19:51.073Z,102142.00
2023-04-09T22:22:17.939Z,102143.00
2023-04-09T22:24:44.878Z,102144.00
2023-04-09T22:27:12.189Z,102138.00
2023-04-09T22:29:39.019Z,102136.00
2023-04-09T22:32:06.096Z,102131.00
2023-04-09T22:34:33.026Z,102135.00
2023-04-09T22:36:59.857Z,102141.00
2023-04-09T22:39:26.661Z,102141.00
2023-04-09T22:41:53.708Z,102138.00
2023-04-09T22:44:20.730Z,102133.00
2023-04-09T22:46:47.656Z,102146.00
2023-04-09T22:49:14.573Z,102158.00
2023-04-09T22:51:41.825Z,102147.00
2023-04-09T22:54:09.133Z,102151.00
2023-04-09T22:56:36.719Z,102137.00
2023-04-09T22:59:03.556Z,102147.00
2023-04-09T23:01:31.525Z,102142.00
2023-04-09T23:03:58.377Z,102140.00
2023-04-09T23:06:25.932Z,102133.00
2023-04-09T23:08:52.995Z,102130.00
2023-04-09T23:11:20.998Z,102144.00
2023-04-09T23:13:47.999Z,102136.00
2023-04-09T23:16:14.850Z,102138.00
2023-04-09T23:18:41.659Z,102135.00
2023-04-09T23:21:10.547Z,102127.00
2023-04-09T23:23:38.235Z,102129.00
2023-04-09T23:26:06.025Z,102141.00
2023-04-09T23:28:32.998Z,102135.00
2023-04-09T23:30:59.888Z,102137.00
2023-04-09T23:33:26.777Z,102144.00
2023-04-09T23:35:53.658Z,102150.00
2023-04-09T23:38:20.647Z,102134.00
2023-04-09T23:40:48.822Z,102146.00
2023-04-09T23:43:15.952Z,102137.00
2023-04-09T23:45:44.033Z,102145.00
2023-04-09T23:48:11.967Z,102137.00
2023-04-09T23:50:42.099Z,102150.00
2023-04-09T23:53:09.109Z,102150.00
2023-04-09T23:55:40.957Z,102138.00
2023-04-09T23:58:08.333Z,102148.00
